sensor_id;sensor_type;location;lat;lon;timestamp;P1;durP1;ratioP1;P2;durP2;ratioP2
62951;SDS011;52163;52.212;-1.002;2023-03-31T00:01:39;4.70;;;1.10;;
62951;SDS011;52163;52.212;-1.002;2023-03-31T00:04:08;5.40;;;1.30;;
62951;SDS011;52163;52.212;-1.002;2023-03-31T00:06:37;9.30;;;1.80;;
62951;SDS011;52163;52.212;-1.002;2023-03-31T00:09:15;6.20;;;1.70;;
62951;SDS011;52163;52.212;-1.002;2023-03-31T00:11:46;9.50;;;1.50;;
62951;SDS011;52163;52.212;-1.002;2023-03-31T00:14:13;5.10;;;1.30;;
62951;SDS011;52163;52.212;-1.002;2023-03-31T00:16:41;6.70;;;1.70;;
62951;SDS011;52163;52.212;-1.002;2023-03-31T00:19:08;6.40;;;1.40;;
62951;SDS011;52163;52.212;-1.002;2023-03-31T00:21:45;4.50;;;1.30;;
62951;SDS011;52163;52.212;-1.002;2023-03-31T00:24:15;7.50;;;1.30;;
62951;SDS011;52163;52.212;-1.002;2023-03-31T00:26:41;5.90;;;1.20;;
62951;SDS011;52163;52.212;-1.002;2023-03-31T00:29:08;5.20;;;1.30;;
62951;SDS011;52163;52.212;-1.002;2023-03-31T00:31:36;5.20;;;1.50;;
62951;SDS011;52163;52.212;-1.002;2023-03-31T00:34:03;5.00;;;1.20;;
62951;SDS011;52163;52.212;-1.002;2023-03-31T00:36:29;2.50;;;1.10;;
62951;SDS011;52163;52.212;-1.002;2023-03-31T00:38:59;4.00;;;1.40;;
62951;SDS011;52163;52.212;-1.002;2023-03-31T00:41:29;4.00;;;1.10;;
62951;SDS011;52163;52.212;-1.002;2023-03-31T00:46:37;4.00;;;1.10;;
62951;SDS011;52163;52.212;-1.002;2023-03-31T00:49:13;4.00;;;1.10;;
62951;SDS011;52163;52.212;-1.002;2023-03-31T00:51:44;5.50;;;1.20;;
62951;SDS011;52163;52.212;-1.002;2023-03-31T00:54:12;7.80;;;1.50;;
62951;SDS011;52163;52.212;-1.002;2023-03-31T00:56:41;5.90;;;1.40;;
62951;SDS011;52163;52.212;-1.002;2023-03-31T01:01:38;3.70;;;1.10;;
62951;SDS011;52163;52.212;-1.002;2023-03-31T01:04:06;2.80;;;1.10;;
62951;SDS011;52163;52.212;-1.002;2023-03-31T01:06:34;4.00;;;1.20;;
62951;SDS011;52163;52.212;-1.002;2023-03-31T01:09:06;2.70;;;1.10;;
62951;SDS011;52163;52.212;-1.002;2023-03-31T01:11:32;4.40;;;1.30;;
62951;SDS011;52163;52.212;-1.002;2023-03-31T01:13:59;2.30;;;1.00;;
62951;SDS011;52163;52.212;-1.002;2023-03-31T01:16:25;5.30;;;1.10;;
62951;SDS011;52163;52.212;-1.002;2023-03-31T01:18:50;2.20;;;1.10;;
62951;SDS011;52163;52.212;-1.002;2023-03-31T01:24:13;3.60;;;1.20;;
62951;SDS011;52163;52.212;-1.002;2023-03-31T01:41:07;4.30;;;1.40;;
62951;SDS011;52163;52.212;-1.002;2023-03-31T01:44:05;5.50;;;1.30;;
62951;SDS011;52163;52.212;-1.002;2023-03-31T01:46:36;3.80;;;1.20;;
62951;SDS011;52163;52.212;-1.002;2023-03-31T01:52:10;5.20;;;1.10;;
62951;SDS011;52163;52.212;-1.002;2023-03-31T01:54:53;7.00;;;1.20;;
62951;SDS011;52163;52.212;-1.002;2023-03-31T01:58:01;4.60;;;1.30;;
62951;SDS011;52163;52.212;-1.002;2023-03-31T02:00:39;6.50;;;1.70;;
62951;SDS011;52163;52.212;-1.002;2023-03-31T02:05:47;6.90;;;1.90;;
62951;SDS011;52163;52.212;-1.002;2023-03-31T02:08:34;5.60;;;1.30;;
62951;SDS011;52163;52.212;-1.002;2023-03-31T02:11:04;8.20;;;1.90;;
62951;SDS011;52163;52.212;-1.002;2023-03-31T02:13:29;6.80;;;1.20;;
62951;SDS011;52163;52.212;-1.002;2023-03-31T02:15:59;4.10;;;1.30;;
62951;SDS011;52163;52.212;-1.002;2023-03-31T02:18:30;5.60;;;1.20;;
62951;SDS011;52163;52.212;-1.002;2023-03-31T02:21:02;5.00;;;1.20;;
62951;SDS011;52163;52.212;-1.002;2023-03-31T02:23:30;5.10;;;1.20;;
62951;SDS011;52163;52.212;-1.002;2023-03-31T02:28:28;3.50;;;1.10;;
62951;SDS011;52163;52.212;-1.002;2023-03-31T02:31:02;4.40;;;1.20;;
62951;SDS011;52163;52.212;-1.002;2023-03-31T02:33:35;3.70;;;1.20;;
62951;SDS011;52163;52.212;-1.002;2023-03-31T02:36:01;4.30;;;1.20;;
62951;SDS011;52163;52.212;-1.002;2023-03-31T02:38:27;3.90;;;0.80;;
62951;SDS011;52163;52.212;-1.002;2023-03-31T02:40:55;5.20;;;1.10;;
62951;SDS011;52163;52.212;-1.002;2023-03-31T02:43:21;6.80;;;1.40;;
62951;SDS011;52163;52.212;-1.002;2023-03-31T02:45:47;3.30;;;1.00;;
62951;SDS011;52163;52.212;-1.002;2023-03-31T03:06:52;5.10;;;1.30;;
62951;SDS011;52163;52.212;-1.002;2023-03-31T03:12:18;3.40;;;1.00;;
62951;SDS011;52163;52.212;-1.002;2023-03-31T03:15:10;2.50;;;0.90;;
62951;SDS011;52163;52.212;-1.002;2023-03-31T03:17:44;4.70;;;0.80;;
62951;SDS011;52163;52.212;-1.002;2023-03-31T03:20:12;5.40;;;1.00;;
62951;SDS011;52163;52.212;-1.002;2023-03-31T03:22:40;5.20;;;1.20;;
62951;SDS011;52163;52.212;-1.002;2023-03-31T03:25:07;4.60;;;1.20;;
62951;SDS011;52163;52.212;-1.002;2023-03-31T03:27:35;6.30;;;1.10;;
62951;SDS011;52163;52.212;-1.002;2023-03-31T03:30:02;3.60;;;0.80;;
62951;SDS011;52163;52.212;-1.002;2023-03-31T03:32:29;4.20;;;1.00;;
62951;SDS011;52163;52.212;-1.002;2023-03-31T03:34:55;8.40;;;1.70;;
62951;SDS011;52163;52.212;-1.002;2023-03-31T03:37:21;6.80;;;1.20;;
62951;SDS011;52163;52.212;-1.002;2023-03-31T03:39:46;5.90;;;1.30;;
62951;SDS011;52163;52.212;-1.002;2023-03-31T03:42:12;3.20;;;1.30;;
62951;SDS011;52163;52.212;-1.002;2023-03-31T03:44:37;6.40;;;1.10;;
62951;SDS011;52163;52.212;-1.002;2023-03-31T03:47:02;6.70;;;1.50;;
62951;SDS011;52163;52.212;-1.002;2023-03-31T03:49:28;5.60;;;0.90;;
62951;SDS011;52163;52.212;-1.002;2023-03-31T03:51:53;5.30;;;1.20;;
62951;SDS011;52163;52.212;-1.002;2023-03-31T03:54:19;8.40;;;1.50;;
62951;SDS011;52163;52.212;-1.002;2023-03-31T03:56:44;6.10;;;1.70;;
62951;SDS011;52163;52.212;-1.002;2023-03-31T03:59:10;4.50;;;1.00;;
62951;SDS011;52163;52.212;-1.002;2023-03-31T04:01:36;7.40;;;1.30;;
62951;SDS011;52163;52.212;-1.002;2023-03-31T04:04:02;6.00;;;1.30;;
62951;SDS011;52163;52.212;-1.002;2023-03-31T04:06:28;4.30;;;1.10;;
62951;SDS011;52163;52.212;-1.002;2023-03-31T04:08:53;4.40;;;1.10;;
62951;SDS011;52163;52.212;-1.002;2023-03-31T04:11:19;9.50;;;1.90;;
62951;SDS011;52163;52.212;-1.002;2023-03-31T04:13:44;5.60;;;1.60;;
62951;SDS011;52163;52.212;-1.002;2023-03-31T04:16:11;8.90;;;1.60;;
62951;SDS011;52163;52.212;-1.002;2023-03-31T04:18:36;7.00;;;1.30;;
62951;SDS011;52163;52.212;-1.002;2023-03-31T04:21:13;10.00;;;1.90;;
62951;SDS011;52163;52.212;-1.002;2023-03-31T04:23:46;7.40;;;1.60;;
62951;SDS011;52163;52.212;-1.002;2023-03-31T04:26:14;6.00;;;1.20;;
62951;SDS011;52163;52.212;-1.002;2023-03-31T04:28:41;6.40;;;1.60;;
62951;SDS011;52163;52.212;-1.002;2023-03-31T04:31:11;5.00;;;1.60;;
62951;SDS011;52163;52.212;-1.002;2023-03-31T04:33:51;7.60;;;1.70;;
62951;SDS011;52163;52.212;-1.002;2023-03-31T04:36:17;9.40;;;1.30;;
62951;SDS011;52163;52.212;-1.002;2023-03-31T04:38:43;6.50;;;1.10;;
62951;SDS011;52163;52.212;-1.002;2023-03-31T04:41:17;6.10;;;1.30;;
62951;SDS011;52163;52.212;-1.002;2023-03-31T04:43:43;4.30;;;1.10;;
62951;SDS011;52163;52.212;-1.002;2023-03-31T04:46:08;9.00;;;1.40;;
62951;SDS011;52163;52.212;-1.002;2023-03-31T04:48:34;6.50;;;1.10;;
62951;SDS011;52163;52.212;-1.002;2023-03-31T04:50:59;8.20;;;1.20;;
62951;SDS011;52163;52.212;-1.002;2023-03-31T04:53:25;8.10;;;1.20;;
62951;SDS011;52163;52.212;-1.002;2023-03-31T04:55:51;4.40;;;1.00;;
62951;SDS011;52163;52.212;-1.002;2023-03-31T04:58:16;8.10;;;1.70;;
62951;SDS011;52163;52.212;-1.002;2023-03-31T05:00:42;5.70;;;1.10;;
62951;SDS011;52163;52.212;-1.002;2023-03-31T05:03:07;7.60;;;1.40;;
62951;SDS011;52163;52.212;-1.002;2023-03-31T05:05:34;4.60;;;1.10;;
62951;SDS011;52163;52.212;-1.002;2023-03-31T05:07:59;4.60;;;1.30;;
62951;SDS011;52163;52.212;-1.002;2023-03-31T05:10:26;4.50;;;1.10;;
62951;SDS011;52163;52.212;-1.002;2023-03-31T05:12:51;6.30;;;1.50;;
62951;SDS011;52163;52.212;-1.002;2023-03-31T05:15:16;8.50;;;1.60;;
62951;SDS011;52163;52.212;-1.002;2023-03-31T05:17:42;7.00;;;1.60;;
62951;SDS011;52163;52.212;-1.002;2023-03-31T05:20:09;5.40;;;1.20;;
62951;SDS011;52163;52.212;-1.002;2023-03-31T05:22:36;7.20;;;1.80;;
62951;SDS011;52163;52.212;-1.002;2023-03-31T05:25:03;4.20;;;1.50;;
62951;SDS011;52163;52.212;-1.002;2023-03-31T05:27:30;5.50;;;1.40;;
62951;SDS011;52163;52.212;-1.002;2023-03-31T05:29:56;4.50;;;1.30;;
62951;SDS011;52163;52.212;-1.002;2023-03-31T05:32:22;5.50;;;1.10;;
62951;SDS011;52163;52.212;-1.002;2023-03-31T05:34:48;4.80;;;1.30;;
62951;SDS011;52163;52.212;-1.002;2023-03-31T05:37:16;4.80;;;1.20;;
62951;SDS011;52163;52.212;-1.002;2023-03-31T05:39:43;4.70;;;1.40;;
62951;SDS011;52163;52.212;-1.002;2023-03-31T05:42:09;5.50;;;1.30;;
62951;SDS011;52163;52.212;-1.002;2023-03-31T05:44:34;7.00;;;1.30;;
62951;SDS011;52163;52.212;-1.002;2023-03-31T05:47:00;5.90;;;1.30;;
62951;SDS011;52163;52.212;-1.002;2023-03-31T05:49:26;3.30;;;1.00;;
62951;SDS011;52163;52.212;-1.002;2023-03-31T05:51:51;8.50;;;1.30;;
62951;SDS011;52163;52.212;-1.002;2023-03-31T05:54:17;3.70;;;1.30;;
62951;SDS011;52163;52.212;-1.002;2023-03-31T05:56:43;6.10;;;1.10;;
62951;SDS011;52163;52.212;-1.002;2023-03-31T05:59:08;6.90;;;1.60;;
62951;SDS011;52163;52.212;-1.002;2023-03-31T06:01:34;5.60;;;1.10;;
62951;SDS011;52163;52.212;-1.002;2023-03-31T06:03:59;3.60;;;0.80;;
62951;SDS011;52163;52.212;-1.002;2023-03-31T06:06:25;4.00;;;1.00;;
62951;SDS011;52163;52.212;-1.002;2023-03-31T06:08:51;4.00;;;1.00;;
62951;SDS011;52163;52.212;-1.002;2023-03-31T06:11:18;2.70;;;1.00;;
62951;SDS011;52163;52.212;-1.002;2023-03-31T06:13:45;2.60;;;0.80;;
62951;SDS011;52163;52.212;-1.002;2023-03-31T06:16:11;2.60;;;0.80;;
62951;SDS011;52163;52.212;-1.002;2023-03-31T06:18:38;5.90;;;1.40;;
62951;SDS011;52163;52.212;-1.002;2023-03-31T06:21:04;4.50;;;1.00;;
62951;SDS011;52163;52.212;-1.002;2023-03-31T06:23:30;4.90;;;1.20;;
62951;SDS011;52163;52.212;-1.002;2023-03-31T06:26:03;5.80;;;1.20;;
62951;SDS011;52163;52.212;-1.002;2023-03-31T06:28:32;4.30;;;1.30;;
62951;SDS011;52163;52.212;-1.002;2023-03-31T06:31:03;4.50;;;1.10;;
62951;SDS011;52163;52.212;-1.002;2023-03-31T06:33:30;4.00;;;1.20;;
62951;SDS011;52163;52.212;-1.002;2023-03-31T06:35:56;4.20;;;1.10;;
62951;SDS011;52163;52.212;-1.002;2023-03-31T06:38:24;6.10;;;1.30;;
62951;SDS011;52163;52.212;-1.002;2023-03-31T06:40:50;4.90;;;1.10;;
62951;SDS011;52163;52.212;-1.002;2023-03-31T06:43:15;4.30;;;1.30;;
62951;SDS011;52163;52.212;-1.002;2023-03-31T06:45:41;6.00;;;1.20;;
62951;SDS011;52163;52.212;-1.002;2023-03-31T06:48:06;6.20;;;1.60;;
62951;SDS011;52163;52.212;-1.002;2023-03-31T06:50:32;2.90;;;1.00;;
62951;SDS011;52163;52.212;-1.002;2023-03-31T06:52:57;2.70;;;0.90;;
62951;SDS011;52163;52.212;-1.002;2023-03-31T06:55:24;5.30;;;1.00;;
62951;SDS011;52163;52.212;-1.002;2023-03-31T06:57:49;3.50;;;1.20;;
62951;SDS011;52163;52.212;-1.002;2023-03-31T07:00:15;4.10;;;1.10;;
62951;SDS011;52163;52.212;-1.002;2023-03-31T07:02:41;3.90;;;0.80;;
62951;SDS011;52163;52.212;-1.002;2023-03-31T07:05:07;3.10;;;1.10;;
62951;SDS011;52163;52.212;-1.002;2023-03-31T07:07:33;5.10;;;1.40;;
62951;SDS011;52163;52.212;-1.002;2023-03-31T07:09:59;6.70;;;1.20;;
62951;SDS011;52163;52.212;-1.002;2023-03-31T07:12:24;6.30;;;1.40;;
62951;SDS011;52163;52.212;-1.002;2023-03-31T07:14:50;5.90;;;1.10;;
62951;SDS011;52163;52.212;-1.002;2023-03-31T07:17:15;7.50;;;1.70;;
62951;SDS011;52163;52.212;-1.002;2023-03-31T07:19:41;5.10;;;1.20;;
62951;SDS011;52163;52.212;-1.002;2023-03-31T07:22:07;6.50;;;1.40;;
62951;SDS011;52163;52.212;-1.002;2023-03-31T07:24:33;5.60;;;1.40;;
62951;SDS011;52163;52.212;-1.002;2023-03-31T07:26:58;6.10;;;1.60;;
62951;SDS011;52163;52.212;-1.002;2023-03-31T07:29:23;5.70;;;1.40;;
62951;SDS011;52163;52.212;-1.002;2023-03-31T07:31:49;7.70;;;1.80;;
62951;SDS011;52163;52.212;-1.002;2023-03-31T07:34:15;7.40;;;1.70;;
62951;SDS011;52163;52.212;-1.002;2023-03-31T07:36:41;5.60;;;1.30;;
62951;SDS011;52163;52.212;-1.002;2023-03-31T07:39:06;7.00;;;1.50;;
62951;SDS011;52163;52.212;-1.002;2023-03-31T07:41:32;5.90;;;1.30;;
62951;SDS011;52163;52.212;-1.002;2023-03-31T07:43:57;5.50;;;1.30;;
62951;SDS011;52163;52.212;-1.002;2023-03-31T07:46:24;3.30;;;0.80;;
62951;SDS011;52163;52.212;-1.002;2023-03-31T07:48:52;2.90;;;0.80;;
62951;SDS011;52163;52.212;-1.002;2023-03-31T07:51:19;4.90;;;1.10;;
62951;SDS011;52163;52.212;-1.002;2023-03-31T07:53:47;4.80;;;1.10;;
62951;SDS011;52163;52.212;-1.002;2023-03-31T07:56:17;4.80;;;1.10;;
62951;SDS011;52163;52.212;-1.002;2023-03-31T07:58:45;3.60;;;1.20;;
62951;SDS011;52163;52.212;-1.002;2023-03-31T08:01:17;6.00;;;1.20;;
62951;SDS011;52163;52.212;-1.002;2023-03-31T08:03:46;5.20;;;1.00;;
62951;SDS011;52163;52.212;-1.002;2023-03-31T08:06:19;4.00;;;1.30;;
62951;SDS011;52163;52.212;-1.002;2023-03-31T08:08:47;6.50;;;1.50;;
62951;SDS011;52163;52.212;-1.002;2023-03-31T08:11:13;5.40;;;1.20;;
62951;SDS011;52163;52.212;-1.002;2023-03-31T08:13:39;4.40;;;0.90;;
62951;SDS011;52163;52.212;-1.002;2023-03-31T08:16:05;6.60;;;1.40;;
62951;SDS011;52163;52.212;-1.002;2023-03-31T08:18:30;5.00;;;1.40;;
62951;SDS011;52163;52.212;-1.002;2023-03-31T08:20:56;6.70;;;1.20;;
62951;SDS011;52163;52.212;-1.002;2023-03-31T08:23:21;8.10;;;1.50;;
62951;SDS011;52163;52.212;-1.002;2023-03-31T08:25:46;6.20;;;1.60;;
62951;SDS011;52163;52.212;-1.002;2023-03-31T08:28:12;7.60;;;1.40;;
62951;SDS011;52163;52.212;-1.002;2023-03-31T08:30:41;6.80;;;1.50;;
62951;SDS011;52163;52.212;-1.002;2023-03-31T08:33:07;4.80;;;1.30;;
62951;SDS011;52163;52.212;-1.002;2023-03-31T08:35:35;4.60;;;1.30;;
62951;SDS011;52163;52.212;-1.002;2023-03-31T08:38:00;4.70;;;1.10;;
62951;SDS011;52163;52.212;-1.002;2023-03-31T08:40:27;4.30;;;1.00;;
62951;SDS011;52163;52.212;-1.002;2023-03-31T08:43:01;2.80;;;0.90;;
62951;SDS011;52163;52.212;-1.002;2023-03-31T08:45:33;5.40;;;1.10;;
62951;SDS011;52163;52.212;-1.002;2023-03-31T08:50:53;3.40;;;0.80;;
62951;SDS011;52163;52.212;-1.002;2023-03-31T08:53:27;2.40;;;0.80;;
62951;SDS011;52163;52.212;-1.002;2023-03-31T08:55:55;3.80;;;1.00;;
62951;SDS011;52163;52.212;-1.002;2023-03-31T09:06:35;5.90;;;1.20;;
62951;SDS011;52163;52.212;-1.002;2023-03-31T09:09:02;5.40;;;0.90;;
62951;SDS011;52163;52.212;-1.002;2023-03-31T09:11:35;4.20;;;1.10;;
62951;SDS011;52163;52.212;-1.002;2023-03-31T09:17:11;2.30;;;0.80;;
62951;SDS011;52163;52.212;-1.002;2023-03-31T09:22:15;5.80;;;1.00;;
62951;SDS011;52163;52.212;-1.002;2023-03-31T09:25:19;4.00;;;0.70;;
62951;SDS011;52163;52.212;-1.002;2023-03-31T09:27:43;2.60;;;0.60;;
62951;SDS011;52163;52.212;-1.002;2023-03-31T09:30:19;1.40;;;0.40;;
62951;SDS011;52163;52.212;-1.002;2023-03-31T09:35:42;2.70;;;0.60;;
62951;SDS011;52163;52.212;-1.002;2023-03-31T09:38:09;2.70;;;0.70;;
62951;SDS011;52163;52.212;-1.002;2023-03-31T09:40:36;2.30;;;0.90;;
62951;SDS011;52163;52.212;-1.002;2023-03-31T09:43:03;2.00;;;0.70;;
62951;SDS011;52163;52.212;-1.002;2023-03-31T09:45:31;1.30;;;0.40;;
62951;SDS011;52163;52.212;-1.002;2023-03-31T09:48:04;1.40;;;0.60;;
62951;SDS011;52163;52.212;-1.002;2023-03-31T09:50:38;1.30;;;0.50;;
62951;SDS011;52163;52.212;-1.002;2023-03-31T09:53:15;1.80;;;0.50;;
62951;SDS011;52163;52.212;-1.002;2023-03-31T09:55:52;3.90;;;0.90;;
62951;SDS011;52163;52.212;-1.002;2023-03-31T09:58:21;2.00;;;0.70;;
62951;SDS011;52163;52.212;-1.002;2023-03-31T10:00:56;0.70;;;0.30;;
62951;SDS011;52163;52.212;-1.002;2023-03-31T10:03:30;2.20;;;0.70;;
62951;SDS011;52163;52.212;-1.002;2023-03-31T10:06:01;1.30;;;0.40;;
62951;SDS011;52163;52.212;-1.002;2023-03-31T10:11:26;2.10;;;0.60;;
62951;SDS011;52163;52.212;-1.002;2023-03-31T10:13:59;1.60;;;0.40;;
62951;SDS011;52163;52.212;-1.002;2023-03-31T10:18:52;1.10;;;0.40;;
62951;SDS011;52163;52.212;-1.002;2023-03-31T10:21:20;2.90;;;0.60;;
62951;SDS011;52163;52.212;-1.002;2023-03-31T10:23:49;3.30;;;0.70;;
62951;SDS011;52163;52.212;-1.002;2023-03-31T10:26:17;3.00;;;0.70;;
62951;SDS011;52163;52.212;-1.002;2023-03-31T10:28:48;3.50;;;0.80;;
62951;SDS011;52163;52.212;-1.002;2023-03-31T10:31:19;3.10;;;0.70;;
62951;SDS011;52163;52.212;-1.002;2023-03-31T10:33:58;3.90;;;0.80;;
62951;SDS011;52163;52.212;-1.002;2023-03-31T10:36:29;3.80;;;0.70;;
62951;SDS011;52163;52.212;-1.002;2023-03-31T10:38:56;2.10;;;0.50;;
62951;SDS011;52163;52.212;-1.002;2023-03-31T10:41:28;3.40;;;0.70;;
62951;SDS011;52163;52.212;-1.002;2023-03-31T10:43:56;2.60;;;0.70;;
62951;SDS011;52163;52.212;-1.002;2023-03-31T10:51:56;1.60;;;0.70;;
62951;SDS011;52163;52.212;-1.002;2023-03-31T10:54:23;2.10;;;0.50;;
62951;SDS011;52163;52.212;-1.002;2023-03-31T10:57:02;2.10;;;0.60;;
62951;SDS011;52163;52.212;-1.002;2023-03-31T11:08:47;1.20;;;0.40;;
62951;SDS011;52163;52.212;-1.002;2023-03-31T11:19:29;1.20;;;0.50;;
62951;SDS011;52163;52.212;-1.002;2023-03-31T11:22:06;1.80;;;0.90;;
62951;SDS011;52163;52.212;-1.002;2023-03-31T11:30:25;0.60;;;0.20;;
62951;SDS011;52163;52.212;-1.002;2023-03-31T11:41:10;0.80;;;0.50;;
62951;SDS011;52163;52.212;-1.002;2023-03-31T11:43:43;1.70;;;0.50;;
62951;SDS011;52163;52.212;-1.002;2023-03-31T11:49:16;1.10;;;0.60;;
62951;SDS011;52163;52.212;-1.002;2023-03-31T11:54:32;1.00;;;0.50;;
62951;SDS011;52163;52.212;-1.002;2023-03-31T11:57:01;1.30;;;0.50;;
62951;SDS011;52163;52.212;-1.002;2023-03-31T11:59:34;1.30;;;0.70;;
62951;SDS011;52163;52.212;-1.002;2023-03-31T12:04:36;1.00;;;0.50;;
62951;SDS011;52163;52.212;-1.002;2023-03-31T12:07:19;1.20;;;0.30;;
62951;SDS011;52163;52.212;-1.002;2023-03-31T12:12:31;2.60;;;0.80;;
62951;SDS011;52163;52.212;-1.002;2023-03-31T12:17:33;1.20;;;0.70;;
62951;SDS011;52163;52.212;-1.002;2023-03-31T12:20:05;2.20;;;0.70;;
62951;SDS011;52163;52.212;-1.002;2023-03-31T12:25:12;1.50;;;0.50;;
62951;SDS011;52163;52.212;-1.002;2023-03-31T12:27:40;1.60;;;0.70;;
62951;SDS011;52163;52.212;-1.002;2023-03-31T12:30:11;1.40;;;0.50;;
62951;SDS011;52163;52.212;-1.002;2023-03-31T12:33:06;1.50;;;0.60;;
62951;SDS011;52163;52.212;-1.002;2023-03-31T12:35:53;1.90;;;0.70;;
62951;SDS011;52163;52.212;-1.002;2023-03-31T12:40:57;2.90;;;0.50;;
62951;SDS011;52163;52.212;-1.002;2023-03-31T12:46:33;0.80;;;0.50;;
62951;SDS011;52163;52.212;-1.002;2023-03-31T12:57:35;2.30;;;0.90;;
62951;SDS011;52163;52.212;-1.002;2023-03-31T13:02:37;2.80;;;1.30;;
62951;SDS011;52163;52.212;-1.002;2023-03-31T13:05:39;2.30;;;1.00;;
62951;SDS011;52163;52.212;-1.002;2023-03-31T13:08:01;1.50;;;1.00;;
62951;SDS011;52163;52.212;-1.002;2023-03-31T13:10:28;2.00;;;1.40;;
62951;SDS011;52163;52.212;-1.002;2023-03-31T13:12:57;2.20;;;1.30;;
62951;SDS011;52163;52.212;-1.002;2023-03-31T13:15:29;2.90;;;1.30;;
62951;SDS011;52163;52.212;-1.002;2023-03-31T13:17:57;2.40;;;1.30;;
62951;SDS011;52163;52.212;-1.002;2023-03-31T13:20:28;2.20;;;1.40;;
62951;SDS011;52163;52.212;-1.002;2023-03-31T13:47:36;4.30;;;2.40;;
62951;SDS011;52163;52.212;-1.002;2023-03-31T13:50:38;4.10;;;2.10;;
62951;SDS011;52163;52.212;-1.002;2023-03-31T14:06:26;3.20;;;2.30;;
62951;SDS011;52163;52.212;-1.002;2023-03-31T14:09:09;3.70;;;2.40;;
62951;SDS011;52163;52.212;-1.002;2023-03-31T14:11:43;4.20;;;3.10;;
62951;SDS011;52163;52.212;-1.002;2023-03-31T14:14:11;4.30;;;2.50;;
62951;SDS011;52163;52.212;-1.002;2023-03-31T14:16:39;3.20;;;1.90;;
62951;SDS011;52163;52.212;-1.002;2023-03-31T14:19:26;3.30;;;1.70;;
62951;SDS011;52163;52.212;-1.002;2023-03-31T14:35:54;4.30;;;2.00;;
62951;SDS011;52163;52.212;-1.002;2023-03-31T14:38:26;3.60;;;2.20;;
62951;SDS011;52163;52.212;-1.002;2023-03-31T14:40:53;3.30;;;2.10;;
62951;SDS011;52163;52.212;-1.002;2023-03-31T14:43:34;3.90;;;2.20;;
62951;SDS011;52163;52.212;-1.002;2023-03-31T14:46:06;3.80;;;1.40;;
62951;SDS011;52163;52.212;-1.002;2023-03-31T14:48:53;2.80;;;1.10;;
62951;SDS011;52163;52.212;-1.002;2023-03-31T14:51:23;2.60;;;1.10;;
62951;SDS011;52163;52.212;-1.002;2023-03-31T14:53:59;2.50;;;1.30;;
62951;SDS011;52163;52.212;-1.002;2023-03-31T14:56:30;1.90;;;1.00;;
62951;SDS011;52163;52.212;-1.002;2023-03-31T14:59:00;5.70;;;2.90;;
62951;SDS011;52163;52.212;-1.002;2023-03-31T15:01:30;1.90;;;1.20;;
62951;SDS011;52163;52.212;-1.002;2023-03-31T15:04:00;2.80;;;1.00;;
62951;SDS011;52163;52.212;-1.002;2023-03-31T15:06:31;1.20;;;0.70;;
62951;SDS011;52163;52.212;-1.002;2023-03-31T15:08:59;1.40;;;0.80;;
62951;SDS011;52163;52.212;-1.002;2023-03-31T15:11:28;2.00;;;0.80;;
62951;SDS011;52163;52.212;-1.002;2023-03-31T15:13:54;1.30;;;0.70;;
62951;SDS011;52163;52.212;-1.002;2023-03-31T15:18:59;1.90;;;1.00;;
62951;SDS011;52163;52.212;-1.002;2023-03-31T15:21:27;1.30;;;0.90;;
62951;SDS011;52163;52.212;-1.002;2023-03-31T15:23:55;4.40;;;2.50;;
62951;SDS011;52163;52.212;-1.002;2023-03-31T15:26:23;2.30;;;0.70;;
62951;SDS011;52163;52.212;-1.002;2023-03-31T15:28:54;1.20;;;0.70;;
62951;SDS011;52163;52.212;-1.002;2023-03-31T15:31:22;1.70;;;0.90;;
62951;SDS011;52163;52.212;-1.002;2023-03-31T15:33:51;2.00;;;0.90;;
62951;SDS011;52163;52.212;-1.002;2023-03-31T15:36:17;2.90;;;1.60;;
62951;SDS011;52163;52.212;-1.002;2023-03-31T15:38:45;1.50;;;1.00;;
62951;SDS011;52163;52.212;-1.002;2023-03-31T15:41:14;2.70;;;1.20;;
62951;SDS011;52163;52.212;-1.002;2023-03-31T15:46:24;3.00;;;1.40;;
62951;SDS011;52163;52.212;-1.002;2023-03-31T15:49:19;3.60;;;1.80;;
62951;SDS011;52163;52.212;-1.002;2023-03-31T15:51:46;3.10;;;1.70;;
62951;SDS011;52163;52.212;-1.002;2023-03-31T15:57:00;4.10;;;2.10;;
62951;SDS011;52163;52.212;-1.002;2023-03-31T15:59:28;3.40;;;2.40;;
62951;SDS011;52163;52.212;-1.002;2023-03-31T16:01:56;6.70;;;2.90;;
62951;SDS011;52163;52.212;-1.002;2023-03-31T16:04:24;4.20;;;2.60;;
62951;SDS011;52163;52.212;-1.002;2023-03-31T16:12:20;7.20;;;5.20;;
62951;SDS011;52163;52.212;-1.002;2023-03-31T16:14:54;4.20;;;2.30;;
62951;SDS011;52163;52.212;-1.002;2023-03-31T16:17:48;4.90;;;3.30;;
62951;SDS011;52163;52.212;-1.002;2023-03-31T16:22:43;7.20;;;3.10;;
62951;SDS011;52163;52.212;-1.002;2023-03-31T16:25:13;10.20;;;6.00;;
62951;SDS011;52163;52.212;-1.002;2023-03-31T16:27:43;11.30;;;7.20;;
62951;SDS011;52163;52.212;-1.002;2023-03-31T16:30:13;15.70;;;9.80;;
62951;SDS011;52163;52.212;-1.002;2023-03-31T16:32:57;9.10;;;5.70;;
62951;SDS011;52163;52.212;-1.002;2023-03-31T16:35:31;7.90;;;4.10;;
62951;SDS011;52163;52.212;-1.002;2023-03-31T16:38:04;7.70;;;4.50;;
62951;SDS011;52163;52.212;-1.002;2023-03-31T16:40:33;8.10;;;4.70;;
62951;SDS011;52163;52.212;-1.002;2023-03-31T16:43:14;11.30;;;8.70;;
62951;SDS011;52163;52.212;-1.002;2023-03-31T16:45:40;8.00;;;5.40;;
62951;SDS011;52163;52.212;-1.002;2023-03-31T16:48:08;9.90;;;7.20;;
62951;SDS011;52163;52.212;-1.002;2023-03-31T16:50:34;8.30;;;6.20;;
62951;SDS011;52163;52.212;-1.002;2023-03-31T16:53:00;13.50;;;9.90;;
62951;SDS011;52163;52.212;-1.002;2023-03-31T16:55:26;8.70;;;6.00;;
62951;SDS011;52163;52.212;-1.002;2023-03-31T16:57:56;11.40;;;8.00;;
62951;SDS011;52163;52.212;-1.002;2023-03-31T17:00:24;6.70;;;4.30;;
62951;SDS011;52163;52.212;-1.002;2023-03-31T17:02:50;8.90;;;3.50;;
62951;SDS011;52163;52.212;-1.002;2023-03-31T17:05:16;5.20;;;3.10;;
62951;SDS011;52163;52.212;-1.002;2023-03-31T17:07:41;7.00;;;2.70;;
62951;SDS011;52163;52.212;-1.002;2023-03-31T17:10:07;5.00;;;3.10;;
62951;SDS011;52163;52.212;-1.002;2023-03-31T17:12:33;6.80;;;4.20;;
62951;SDS011;52163;52.212;-1.002;2023-03-31T17:14:58;5.60;;;2.90;;
62951;SDS011;52163;52.212;-1.002;2023-03-31T17:17:23;4.90;;;3.10;;
62951;SDS011;52163;52.212;-1.002;2023-03-31T17:19:49;5.60;;;3.00;;
62951;SDS011;52163;52.212;-1.002;2023-03-31T17:22:15;5.00;;;2.50;;
62951;SDS011;52163;52.212;-1.002;2023-03-31T17:24:40;4.80;;;2.60;;
62951;SDS011;52163;52.212;-1.002;2023-03-31T17:27:06;3.30;;;2.20;;
62951;SDS011;52163;52.212;-1.002;2023-03-31T17:29:31;3.70;;;2.40;;
62951;SDS011;52163;52.212;-1.002;2023-03-31T17:31:57;3.90;;;2.10;;
62951;SDS011;52163;52.212;-1.002;2023-03-31T17:34:22;4.50;;;1.90;;
62951;SDS011;52163;52.212;-1.002;2023-03-31T17:36:47;2.60;;;1.80;;
62951;SDS011;52163;52.212;-1.002;2023-03-31T17:39:14;4.00;;;2.30;;
62951;SDS011;52163;52.212;-1.002;2023-03-31T17:41:40;5.80;;;2.10;;
62951;SDS011;52163;52.212;-1.002;2023-03-31T17:44:05;4.00;;;1.80;;
62951;SDS011;52163;52.212;-1.002;2023-03-31T17:46:32;3.70;;;2.00;;
62951;SDS011;52163;52.212;-1.002;2023-03-31T17:48:58;5.30;;;2.00;;
62951;SDS011;52163;52.212;-1.002;2023-03-31T17:51:24;3.30;;;1.80;;
62951;SDS011;52163;52.212;-1.002;2023-03-31T17:53:52;4.30;;;2.00;;
62951;SDS011;52163;52.212;-1.002;2023-03-31T17:56:17;3.20;;;1.70;;
62951;SDS011;52163;52.212;-1.002;2023-03-31T17:58:43;2.80;;;1.60;;
62951;SDS011;52163;52.212;-1.002;2023-03-31T18:01:10;3.50;;;1.50;;
62951;SDS011;52163;52.212;-1.002;2023-03-31T18:03:37;4.30;;;2.10;;
62951;SDS011;52163;52.212;-1.002;2023-03-31T18:06:03;4.30;;;1.90;;
62951;SDS011;52163;52.212;-1.002;2023-03-31T18:08:31;3.70;;;2.00;;
62951;SDS011;52163;52.212;-1.002;2023-03-31T18:10:57;4.10;;;2.20;;
62951;SDS011;52163;52.212;-1.002;2023-03-31T18:13:23;4.00;;;1.70;;
62951;SDS011;52163;52.212;-1.002;2023-03-31T18:15:49;4.80;;;2.40;;
62951;SDS011;52163;52.212;-1.002;2023-03-31T18:18:17;5.00;;;2.30;;
62951;SDS011;52163;52.212;-1.002;2023-03-31T18:20:43;5.80;;;2.30;;